sensor_id;sensor_type;location;lat;lon;timestamp;pressure;altitude;pressure_sealevel;temperature;humidity
6136;BME280;24008;42.664;23.372;2023-09-30T00:01:22;95115.56;;;15.28;69.91
6136;BME280;24008;42.664;23.372;2023-09-30T00:03:49;95154.38;;;15.42;70.75
6136;BME280;24008;42.664;23.372;2023-09-30T00:06:17;95157.75;;;15.51;70.47
6136;BME280;24008;42.664;23.372;2023-09-30T00:08:44;95152.28;;;15.54;70.57
6136;BME280;24008;42.664;23.372;2023-09-30T00:11:11;95194.81;;;15.74;71.03
6136;BME280;24008;42.664;23.372;2023-09-30T00:13:38;95184.03;;;15.71;71.99
6136;BME280;24008;42.664;23.372;2023-09-30T00:16:05;95183.22;;;15.70;71.96
6136;BME280;24008;42.664;23.372;2023-09-30T00:18:31;95182.75;;;15.67;71.73
6136;BME280;24008;42.664;23.372;2023-09-30T00:20:58;95145.66;;;15.43;72.51
6136;BME280;24008;42.664;23.372;2023-09-30T00:23:26;95148.72;;;15.47;71.93
6136;BME280;24008;42.664;23.372;2023-09-30T00:25:54;95141.63;;;15.49;72.06
6136;BME280;24008;42.664;23.372;2023-09-30T00:28:21;95140.69;;;15.42;72.32
6136;BME280;24008;42.664;23.372;2023-09-30T00:30:48;95154.22;;;15.44;72.43
6136;BME280;24008;42.664;23.372;2023-09-30T00:33:15;95132.63;;;15.29;72.13
6136;BME280;24008;42.664;23.372;2023-09-30T00:35:42;95115.56;;;15.28;72.38
6136;BME280;24008;42.664;23.372;2023-09-30T00:38:09;95177.09;;;15.63;72.22
6136;BME280;24008;42.664;23.372;2023-09-30T00:40:37;95144.22;;;15.49;72.39
6136;BME280;24008;42.664;23.372;2023-09-30T00:43:04;95172.91;;;15.70;73.04
6136;BME280;24008;42.664;23.372;2023-09-30T00:45:31;95116.84;;;15.32;72.79
6136;BME280;24008;42.664;23.372;2023-09-30T00:47:57;95092.69;;;15.17;72.41
6136;BME280;24008;42.664;23.372;2023-09-30T00:50:24;94675.44;;;12.60;72.41
6136;BME280;24008;42.664;23.372;2023-09-30T00:52:52;95201.75;;;15.82;73.16
6136;BME280;24008;42.664;23.372;2023-09-30T00:55:19;95086.88;;;15.23;72.61
6136;BME280;24008;42.664;23.372;2023-09-30T00:57:47;95184.16;;;15.53;72.86
6136;BME280;24008;42.664;23.372;2023-09-30T01:00:15;95150.66;;;15.53;72.49
6136;BME280;24008;42.664;23.372;2023-09-30T01:02:44;95167.75;;;15.70;73.33
6136;BME280;24008;42.664;23.372;2023-09-30T01:05:11;95045.22;;;14.95;72.60
6136;BME280;24008;42.664;23.372;2023-09-30T01:07:38;95162.59;;;15.70;72.72
6136;BME280;24008;42.664;23.372;2023-09-30T01:10:06;94957.84;;;14.45;71.93
6136;BME280;24008;42.664;23.372;2023-09-30T01:12:33;94950.53;;;14.32;70.89
6136;BME280;24008;42.664;23.372;2023-09-30T01:15:01;95074.50;;;15.18;70.95
6136;BME280;24008;42.664;23.372;2023-09-30T01:17:30;95159.22;;;15.78;70.56
6136;BME280;24008;42.664;23.372;2023-09-30T01:19:57;95056.47;;;15.02;70.57
6136;BME280;24008;42.664;23.372;2023-09-30T01:22:27;95051.31;;;15.10;70.98
6136;BME280;24008;42.664;23.372;2023-09-30T01:24:55;95104.44;;;15.52;71.17
6136;BME280;24008;42.664;23.372;2023-09-30T01:27:22;95161.63;;;15.88;70.39
6136;BME280;24008;42.664;23.372;2023-09-30T01:29:49;95070.00;;;15.28;69.93
6136;BME280;24008;42.664;23.372;2023-09-30T01:32:16;95126.88;;;15.67;69.78
6136;BME280;24008;42.664;23.372;2023-09-30T01:34:42;95076.44;;;15.32;69.67
6136;BME280;24008;42.664;23.372;2023-09-30T01:37:09;95128.78;;;15.65;69.67
6136;BME280;24008;42.664;23.372;2023-09-30T01:39:37;95020.59;;;15.00;69.93
6136;BME280;24008;42.664;23.372;2023-09-30T01:42:04;95047.97;;;15.18;70.46
6136;BME280;24008;42.664;23.372;2023-09-30T01:44:31;95107.81;;;15.52;69.99
6136;BME280;24008;42.664;23.372;2023-09-30T01:46:58;95097.53;;;15.20;69.92
6136;BME280;24008;42.664;23.372;2023-09-30T01:49:25;94746.22;;;13.29;69.53
6136;BME280;24008;42.664;23.372;2023-09-30T01:51:52;95052.44;;;15.24;71.10
6136;BME280;24008;42.664;23.372;2023-09-30T01:54:19;95031.88;;;15.07;71.46
6136;BME280;24008;42.664;23.372;2023-09-30T01:56:47;95154.22;;;15.84;71.65
6136;BME280;24008;42.664;23.372;2023-09-30T01:59:15;94974.41;;;14.66;70.19
6136;BME280;24008;42.664;23.372;2023-09-30T02:01:43;95157.16;;;15.81;70.43
6136;BME280;24008;42.664;23.372;2023-09-30T02:04:11;94982.94;;;14.75;70.63
6136;BME280;24008;42.664;23.372;2023-09-30T02:06:38;95112.69;;;15.55;71.37
6136;BME280;24008;42.664;23.372;2023-09-30T02:09:05;95155.19;;;15.75;72.72
6136;BME280;24008;42.664;23.372;2023-09-30T02:11:34;95092.72;;;15.33;71.67
6136;BME280;24008;42.664;23.372;2023-09-30T02:14:03;95119.41;;;15.48;72.01
6136;BME280;24008;42.664;23.372;2023-09-30T02:16:31;95099.13;;;15.29;72.84
6136;BME280;24008;42.664;23.372;2023-09-30T02:18:58;95169.38;;;15.55;73.74
6136;BME280;24008;42.664;23.372;2023-09-30T02:21:25;95159.97;;;15.46;74.79
6136;BME280;24008;42.664;23.372;2023-09-30T02:23:52;95155.47;;;15.40;74.87
6136;BME280;24008;42.664;23.372;2023-09-30T02:26:20;95022.53;;;14.32;73.06
6136;BME280;24008;42.664;23.372;2023-09-30T02:28:47;95109.38;;;14.88;71.15
6136;BME280;24008;42.664;23.372;2023-09-30T02:31:15;95149.97;;;15.10;70.36
6136;BME280;24008;42.664;23.372;2023-09-30T02:33:43;95126.44;;;14.89;70.51
6136;BME280;24008;42.664;23.372;2023-09-30T02:36:09;94964.88;;;13.84;70.20
6136;BME280;24008;42.664;23.372;2023-09-30T02:38:38;95160.69;;;14.98;70.83
6136;BME280;24008;42.664;23.372;2023-09-30T02:41:05;95093.53;;;14.59;71.65
6136;BME280;24008;42.664;23.372;2023-09-30T02:43:32;95153.28;;;14.87;71.46
6136;BME280;24008;42.664;23.372;2023-09-30T02:45:59;95078.97;;;14.33;71.76
6136;BME280;24008;42.664;23.372;2023-09-30T02:48:27;95152.75;;;14.67;72.01
6136;BME280;24008;42.664;23.372;2023-09-30T02:50:54;95027.94;;;13.79;72.63
6136;BME280;24008;42.664;23.372;2023-09-30T02:53:21;95152.34;;;14.46;72.23
6136;BME280;24008;42.664;23.372;2023-09-30T02:55:48;95031.06;;;13.64;72.17
6136;BME280;24008;42.664;23.372;2023-09-30T02:58:15;95083.66;;;13.78;72.46
6136;BME280;24008;42.664;23.372;2023-09-30T03:00:47;95026.94;;;13.46;72.39
6136;BME280;24008;42.664;23.372;2023-09-30T03:03:13;95071.38;;;13.64;73.38
6136;BME280;24008;42.664;23.372;2023-09-30T03:05:42;94959.81;;;12.89;74.99
6136;BME280;24008;42.664;23.372;2023-09-30T03:08:10;95159.81;;;14.13;75.47
6136;BME280;24008;42.664;23.372;2023-09-30T03:10:37;95157.44;;;14.12;75.43
6136;BME280;24008;42.664;23.372;2023-09-30T03:13:06;95021.56;;;13.31;75.60
6136;BME280;24008;42.664;23.372;2023-09-30T03:15:34;95109.47;;;13.77;74.64
6136;BME280;24008;42.664;23.372;2023-09-30T03:18:01;95135.66;;;13.98;74.63
6136;BME280;24008;42.664;23.372;2023-09-30T03:20:29;95184.94;;;14.19;74.54
6136;BME280;24008;42.664;23.372;2023-09-30T03:22:57;95157.31;;;14.21;74.04
6136;BME280;24008;42.664;23.372;2023-09-30T03:25:25;95076.72;;;13.70;74.50
6136;BME280;24008;42.664;23.372;2023-09-30T03:27:52;95106.50;;;13.89;74.55
6136;BME280;24008;42.664;23.372;2023-09-30T03:30:19;95156.03;;;14.25;75.24
6136;BME280;24008;42.664;23.372;2023-09-30T03:32:46;95044.38;;;13.60;74.94
6136;BME280;24008;42.664;23.372;2023-09-30T03:35:13;95154.28;;;14.26;75.38
6136;BME280;24008;42.664;23.372;2023-09-30T03:37:43;95149.13;;;14.26;75.55
6136;BME280;24008;42.664;23.372;2023-09-30T03:40:13;95155.72;;;14.20;76.40
6136;BME280;24008;42.664;23.372;2023-09-30T03:42:40;95111.47;;;13.83;76.10
6136;BME280;24008;42.664;23.372;2023-09-30T03:45:09;95156.31;;;14.14;76.16
6136;BME280;24008;42.664;23.372;2023-09-30T03:47:36;95119.72;;;13.94;76.90
6136;BME280;24008;42.664;23.372;2023-09-30T03:50:04;95053.06;;;13.41;76.76
6136;BME280;24008;42.664;23.372;2023-09-30T03:52:34;95152.59;;;14.09;76.42
6136;BME280;24008;42.664;23.372;2023-09-30T03:55:00;95110.50;;;13.84;76.51
6136;BME280;24008;42.664;23.372;2023-09-30T03:57:32;95112.06;;;13.77;75.52
6136;BME280;24008;42.664;23.372;2023-09-30T03:59:59;95153.41;;;14.09;74.67
6136;BME280;24008;42.664;23.372;2023-09-30T04:02:26;95126.25;;;13.89;74.50
6136;BME280;24008;42.664;23.372;2023-09-30T04:04:53;95114.47;;;13.78;74.79
6136;BME280;24008;42.664;23.372;2023-09-30T04:07:21;95040.34;;;13.31;74.08
6136;BME280;24008;42.664;23.372;2023-09-30T04:09:48;94974.38;;;12.88;74.20
6136;BME280;24008;42.664;23.372;2023-09-30T04:12:15;95131.41;;;13.89;73.92
6136;BME280;24008;42.664;23.372;2023-09-30T04:14:43;95195.34;;;14.10;74.74
6136;BME280;24008;42.664;23.372;2023-09-30T04:17:10;95159.63;;;14.06;74.46
6136;BME280;24008;42.664;23.372;2023-09-30T04:19:37;95032.06;;;13.20;74.39
6136;BME280;24008;42.664;23.372;2023-09-30T04:22:04;95168.41;;;13.96;74.89
6136;BME280;24008;42.664;23.372;2023-09-30T04:24:30;95017.91;;;12.98;74.36
6136;BME280;24008;42.664;23.372;2023-09-30T04:26:57;95173.00;;;13.84;75.08
6136;BME280;24008;42.664;23.372;2023-09-30T04:29:28;95109.22;;;13.36;75.59
6136;BME280;24008;42.664;23.372;2023-09-30T04:31:56;95178.84;;;13.77;75.87
6136;BME280;24008;42.664;23.372;2023-09-30T04:34:23;95092.38;;;13.16;76.45
6136;BME280;24008;42.664;23.372;2023-09-30T04:36:50;94986.84;;;12.30;75.30
6136;BME280;24008;42.664;23.372;2023-09-30T04:39:17;95145.06;;;13.46;75.62
6136;BME280;24008;42.664;23.372;2023-09-30T04:41:44;95119.56;;;13.26;75.76
6136;BME280;24008;42.664;23.372;2023-09-30T04:44:12;95078.97;;;12.94;74.68
6136;BME280;24008;42.664;23.372;2023-09-30T04:46:39;95185.97;;;13.65;74.53
6136;BME280;24008;42.664;23.372;2023-09-30T04:49:08;95185.50;;;13.61;74.03
6136;BME280;24008;42.664;23.372;2023-09-30T04:51:35;95218.44;;;13.66;73.74
6136;BME280;24008;42.664;23.372;2023-09-30T04:54:03;95189.06;;;13.68;73.12
6136;BME280;24008;42.664;23.372;2023-09-30T04:56:32;95195.97;;;13.68;74.12
6136;BME280;24008;42.664;23.372;2023-09-30T04:58:59;95063.50;;;12.86;73.52
6136;BME280;24008;42.664;23.372;2023-09-30T05:01:27;95193.25;;;13.69;74.09
6136;BME280;24008;42.664;23.372;2023-09-30T05:03:54;95160.53;;;13.54;74.83
6136;BME280;24008;42.664;23.372;2023-09-30T05:06:22;95119.75;;;13.33;75.30
6136;BME280;24008;42.664;23.372;2023-09-30T05:08:48;95196.13;;;13.84;75.17
6136;BME280;24008;42.664;23.372;2023-09-30T05:11:15;95146.59;;;13.56;75.09
6136;BME280;24008;42.664;23.372;2023-09-30T05:13:42;95204.38;;;13.96;75.05
6136;BME280;24008;42.664;23.372;2023-09-30T05:16:09;95200.09;;;14.04;74.92
6136;BME280;24008;42.664;23.372;2023-09-30T05:18:38;95214.13;;;14.10;74.61
6136;BME280;24008;42.664;23.372;2023-09-30T05:21:05;95202.38;;;14.33;74.16
6136;BME280;24008;42.664;23.372;2023-09-30T05:23:33;95148.44;;;14.16;73.08
6136;BME280;24008;42.664;23.372;2023-09-30T05:26:01;95142.06;;;14.28;73.36
6136;BME280;24008;42.664;23.372;2023-09-30T05:28:28;95099.53;;;14.33;73.19
6136;BME280;24008;42.664;23.372;2023-09-30T05:30:55;95156.84;;;14.94;70.88
6136;BME280;24008;42.664;23.372;2023-09-30T05:33:21;95106.72;;;14.64;70.71
6136;BME280;24008;42.664;23.372;2023-09-30T05:35:48;95187.16;;;15.24;70.84
6136;BME280;24008;42.664;23.372;2023-09-30T05:38:15;95164.13;;;15.06;70.02
6136;BME280;24008;42.664;23.372;2023-09-30T05:40:46;95207.97;;;15.39;69.36
6136;BME280;24008;42.664;23.372;2023-09-30T05:43:14;95209.56;;;15.48;68.38
6136;BME280;24008;42.664;23.372;2023-09-30T05:45:42;95207.06;;;15.56;68.40
6136;BME280;24008;42.664;23.372;2023-09-30T05:48:14;95213.19;;;15.63;67.85
6136;BME280;24008;42.664;23.372;2023-09-30T05:50:42;95144.84;;;15.27;67.58
6136;BME280;24008;42.664;23.372;2023-09-30T05:53:09;95210.75;;;15.94;67.76
6136;BME280;24008;42.664;23.372;2023-09-30T05:55:37;95235.44;;;16.05;66.91
6136;BME280;24008;42.664;23.372;2023-09-30T05:58:05;95210.28;;;16.07;66.32
6136;BME280;24008;42.664;23.372;2023-09-30T06:00:32;95208.53;;;15.91;65.76
6136;BME280;24008;42.664;23.372;2023-09-30T06:03:01;95215.75;;;16.20;65.02
6136;BME280;24008;42.664;23.372;2023-09-30T06:05:29;95218.94;;;16.30;65.13
6136;BME280;24008;42.664;23.372;2023-09-30T06:07:57;95093.97;;;15.53;64.89
6136;BME280;24008;42.664;23.372;2023-09-30T06:10:24;95150.34;;;15.89;64.59
6136;BME280;24008;42.664;23.372;2023-09-30T06:12:52;95219.84;;;16.78;63.83
6136;BME280;24008;42.664;23.372;2023-09-30T06:15:21;95220.09;;;16.99;62.64
6136;BME280;24008;42.664;23.372;2023-09-30T06:17:51;95226.19;;;17.06;62.36
6136;BME280;24008;42.664;23.372;2023-09-30T06:20:18;95192.97;;;16.95;62.17
6136;BME280;24008;42.664;23.372;2023-09-30T06:22:48;95177.22;;;16.90;61.55
6136;BME280;24008;42.664;23.372;2023-09-30T06:25:15;95141.19;;;16.66;62.12
6136;BME280;24008;42.664;23.372;2023-09-30T06:27:43;95201.81;;;17.09;61.30
6136;BME280;24008;42.664;23.372;2023-09-30T06:30:11;95201.59;;;17.18;60.92
6136;BME280;24008;42.664;23.372;2023-09-30T06:32:40;95244.28;;;17.68;61.37
6136;BME280;24008;42.664;23.372;2023-09-30T06:35:08;95197.66;;;18.22;59.18
6136;BME280;24008;42.664;23.372;2023-09-30T06:37:36;95051.09;;;18.65;55.70
6136;BME280;24008;42.664;23.372;2023-09-30T06:40:03;95185.72;;;20.71;51.46
6136;BME280;24008;42.664;23.372;2023-09-30T06:42:30;95236.63;;;22.28;48.25
6136;BME280;24008;42.664;23.372;2023-09-30T06:44:58;95107.13;;;22.62;45.57
6136;BME280;24008;42.664;23.372;2023-09-30T06:47:25;95236.63;;;24.40;43.27
6136;BME280;24008;42.664;23.372;2023-09-30T06:49:53;95235.47;;;25.22;41.01
6136;BME280;24008;42.664;23.372;2023-09-30T06:52:20;95242.88;;;26.03;39.42
6136;BME280;24008;42.664;23.372;2023-09-30T06:54:47;95247.06;;;26.69;37.84
6136;BME280;24008;42.664;23.372;2023-09-30T06:57:14;95252.19;;;27.34;36.00
6136;BME280;24008;42.664;23.372;2023-09-30T06:59:41;95207.63;;;27.51;34.49
6136;BME280;24008;42.664;23.372;2023-09-30T07:02:08;95081.28;;;26.79;33.52
6136;BME280;24008;42.664;23.372;2023-09-30T07:04:34;95252.22;;;28.19;33.57
6136;BME280;24008;42.664;23.372;2023-09-30T07:07:03;95216.47;;;27.90;33.18
6136;BME280;24008;42.664;23.372;2023-09-30T07:09:29;95251.28;;;28.42;32.94
6136;BME280;24008;42.664;23.372;2023-09-30T07:11:59;95257.03;;;28.73;32.10
6136;BME280;24008;42.664;23.372;2023-09-30T07:14:26;95202.81;;;28.55;32.06
6136;BME280;24008;42.664;23.372;2023-09-30T07:16:53;95271.56;;;29.14;31.42
6136;BME280;24008;42.664;23.372;2023-09-30T07:19:20;94915.22;;;27.23;31.47
6136;BME280;24008;42.664;23.372;2023-09-30T07:21:46;95269.97;;;29.34;30.55
6136;BME280;24008;42.664;23.372;2023-09-30T07:24:14;95242.59;;;29.35;30.48
6136;BME280;24008;42.664;23.372;2023-09-30T07:26:41;94747.66;;;26.27;30.13
6136;BME280;24008;42.664;23.372;2023-09-30T07:29:09;95197.00;;;29.08;30.38
6136;BME280;24008;42.664;23.372;2023-09-30T07:31:36;95020.31;;;27.95;29.41
6136;BME280;24008;42.664;23.372;2023-09-30T07:34:03;95200.03;;;28.61;29.98
6136;BME280;24008;42.664;23.372;2023-09-30T07:36:29;95128.72;;;27.91;30.51
6136;BME280;24008;42.664;23.372;2023-09-30T07:38:56;95077.78;;;27.92;30.10
6136;BME280;24008;42.664;23.372;2023-09-30T07:41:27;95075.38;;;28.07;30.08
6136;BME280;24008;42.664;23.372;2023-09-30T07:43:54;95264.88;;;29.45;29.64
6136;BME280;24008;42.664;23.372;2023-09-30T07:46:20;95267.03;;;29.69;29.48
6136;BME280;24008;42.664;23.372;2023-09-30T07:48:47;95271.19;;;29.44;28.81
6136;BME280;24008;42.664;23.372;2023-09-30T07:51:14;95242.81;;;29.51;29.48
6136;BME280;24008;42.664;23.372;2023-09-30T07:53:41;95264.09;;;29.93;29.13
6136;BME280;24008;42.664;23.372;2023-09-30T07:56:08;95261.34;;;30.04;29.43
6136;BME280;24008;42.664;23.372;2023-09-30T07:58:36;95264.97;;;29.98;29.74
6136;BME280;24008;42.664;23.372;2023-09-30T08:01:03;95216.94;;;30.23;28.40
6136;BME280;24008;42.664;23.372;2023-09-30T08:03:30;95276.81;;;30.87;27.73
6136;BME280;24008;42.664;23.372;2023-09-30T08:05:57;95216.69;;;29.71;28.07
6136;BME280;24008;42.664;23.372;2023-09-30T08:08:24;95220.75;;;30.05;27.67
6136;BME280;24008;42.664;23.372;2023-09-30T08:10:54;95247.16;;;30.11;28.22
6136;BME280;24008;42.664;23.372;2023-09-30T08:13:21;95277.50;;;30.40;27.07
6136;BME280;24008;42.664;23.372;2023-09-30T08:15:50;95137.22;;;29.84;26.53
6136;BME280;24008;42.664;23.372;2023-09-30T08:18:18;95283.69;;;30.88;26.79
6136;BME280;24008;42.664;23.372;2023-09-30T08:20:45;95130.84;;;30.07;26.67
6136;BME280;24008;42.664;23.372;2023-09-30T08:23:12;95191.88;;;30.21;28.20
6136;BME280;24008;42.664;23.372;2023-09-30T08:25:39;95208.78;;;30.25;27.11
6136;BME280;24008;42.664;23.372;2023-09-30T08:28:05;95264.41;;;30.87;26.80
6136;BME280;24008;42.664;23.372;2023-09-30T08:30:33;95188.25;;;30.64;26.59
6136;BME280;24008;42.664;23.372;2023-09-30T08:33:02;95273.44;;;31.38;26.96
6136;BME280;24008;42.664;23.372;2023-09-30T08:35:35;95270.41;;;31.77;26.51
6136;BME280;24008;42.664;23.372;2023-09-30T08:38:02;95272.19;;;31.61;26.42
6136;BME280;24008;42.664;23.372;2023-09-30T08:40:29;95231.91;;;31.29;25.78
6136;BME280;24008;42.664;23.372;2023-09-30T08:42:56;95279.16;;;30.83;25.45
6136;BME280;24008;42.664;23.372;2023-09-30T08:45:24;95264.94;;;30.52;26.41
6136;BME280;24008;42.664;23.372;2023-09-30T08:47:54;95276.31;;;30.90;26.39
6136;BME280;24008;42.664;23.372;2023-09-30T08:50:22;95257.84;;;30.95;25.94
6136;BME280;24008;42.664;23.372;2023-09-30T08:52:50;95186.81;;;30.88;25.69
6136;BME280;24008;42.664;23.372;2023-09-30T08:55:18;95215.06;;;30.88;24.82
6136;BME280;24008;42.664;23.372;2023-09-30T08:57:46;95146.28;;;30.67;25.54
6136;BME280;24008;42.664;23.372;2023-09-30T09:00:13;95260.22;;;31.38;24.85
6136;BME280;24008;42.664;23.372;2023-09-30T09:02:42;95097.50;;;30.70;24.46
6136;BME280;24008;42.664;23.372;2023-09-30T09:05:09;95255.88;;;31.74;24.18
6136;BME280;24008;42.664;23.372;2023-09-30T09:07:38;94904.56;;;29.42;24.24
6136;BME280;24008;42.664;23.372;2023-09-30T09:10:06;94771.63;;;28.38;25.07
6136;BME280;24008;42.664;23.372;2023-09-30T09:12:35;95032.25;;;30.08;24.09
6136;BME280;24008;42.664;23.372;2023-09-30T09:15:02;95185.72;;;31.41;23.21
6136;BME280;24008;42.664;23.372;2023-09-30T09:17:42;94992.84;;;30.33;22.88
6136;BME280;24008;42.664;23.372;2023-09-30T09:20:10;94922.22;;;29.88;23.41
6136;BME280;24008;42.664;23.372;2023-09-30T09:22:41;95241.66;;;32.16;21.95
6136;BME280;24008;42.664;23.372;2023-09-30T09:25:09;95243.03;;;32.44;21.95
6136;BME280;24008;42.664;23.372;2023-09-30T09:27:36;95237.47;;;32.25;22.52
6136;BME280;24008;42.664;23.372;2023-09-30T09:30:19;95032.41;;;30.96;22.35
6136;BME280;24008;42.664;23.372;2023-09-30T09:33:02;95238.28;;;32.20;22.12
6136;BME280;24008;42.664;23.372;2023-09-30T09:35:31;95143.94;;;31.23;22.55
6136;BME280;24008;42.664;23.372;2023-09-30T09:38:01;95234.03;;;32.19;22.22
6136;BME280;24008;42.664;23.372;2023-09-30T09:40:29;95227.38;;;32.02;22.33
6136;BME280;24008;42.664;23.372;2023-09-30T09:42:56;95231.41;;;32.45;22.28
6136;BME280;24008;42.664;23.372;2023-09-30T09:45:25;95229.75;;;33.00;21.15
6136;BME280;24008;42.664;23.372;2023-09-30T09:47:53;95233.44;;;33.09;21.51
6136;BME280;24008;42.664;23.372;2023-09-30T09:50:21;94978.81;;;30.95;22.03
6136;BME280;24008;42.664;23.372;2023-09-30T09:52:49;95223.44;;;32.55;21.58
6136;BME280;24008;42.664;23.372;2023-09-30T09:55:19;95099.69;;;31.76;22.06
6136;BME280;24008;42.664;23.372;2023-09-30T09:57:47;95149.81;;;31.50;22.03
6136;BME280;24008;42.664;23.372;2023-09-30T10:00:16;94890.09;;;29.44;22.95
6136;BME280;24008;42.664;23.372;2023-09-30T10:02:44;95094.25;;;31.10;22.58
6136;BME280;24008;42.664;23.372;2023-09-30T10:05:13;95092.25;;;31.73;21.93
6136;BME280;24008;42.664;23.372;2023-09-30T10:07:45;95150.97;;;32.36;21.09
6136;BME280;24008;42.664;23.372;2023-09-30T10:10:20;95085.34;;;32.17;21.04
6136;BME280;24008;42.664;23.372;2023-09-30T10:12:48;95134.53;;;32.49;21.02
6136;BME280;24008;42.664;23.372;2023-09-30T10:15:39;95206.75;;;32.75;20.86
6136;BME280;24008;42.664;23.372;2023-09-30T10:18:07;94944.88;;;29.89;21.79
6136;BME280;24008;42.664;23.372;2023-09-30T10:20:37;95132.91;;;30.37;22.52
6136;BME280;24008;42.664;23.372;2023-09-30T10:23:21;95106.94;;;29.87;22.50
6136;BME280;24008;42.664;23.372;2023-09-30T10:25:53;95101.34;;;30.05;23.39
6136;BME280;24008;42.664;23.372;2023-09-30T10:28:34;95218.47;;;30.51;22.24
6136;BME280;24008;42.664;23.372;2023-09-30T10:31:15;94952.94;;;28.77;22.42
6136;BME280;24008;42.664;23.372;2023-09-30T10:34:17;95182.97;;;30.27;22.62
6136;BME280;24008;42.664;23.372;2023-09-30T10:36:46;95153.13;;;29.62;23.36
6136;BME280;24008;42.664;23.372;2023-09-30T10:39:14;95126.59;;;29.74;23.19
6136;BME280;24008;42.664;23.372;2023-09-30T10:41:50;95080.69;;;29.65;22.87
6136;BME280;24008;42.664;23.372;2023-09-30T10:44:33;95161.31;;;30.25;22.53
6136;BME280;24008;42.664;23.372;2023-09-30T10:47:00;95157.19;;;30.02;22.17
6136;BME280;24008;42.664;23.372;2023-09-30T10:49:47;95159.78;;;29.97;22.37
6136;BME280;24008;42.664;23.372;2023-09-30T10:52:21;95144.97;;;29.64;22.72
6136;BME280;24008;42.664;23.372;2023-09-30T10:54:49;95132.16;;;29.46;23.25
6136;BME280;24008;42.664;23.372;2023-09-30T10:57:27;95115.81;;;29.44;22.79
6136;BME280;24008;42.664;23.372;2023-09-30T11:00:07;95159.88;;;29.31;23.05
6136;BME280;24008;42.664;23.372;2023-09-30T11:02:48;95158.06;;;29.10;23.11
6136;BME280;24008;42.664;23.372;2023-09-30T11:05:14;95158.72;;;29.00;23.03
6136;BME280;24008;42.664;23.372;2023-09-30T11:07:41;95137.69;;;28.62;23.55
6136;BME280;24008;42.664;23.372;2023-09-30T11:10:10;95157.84;;;28.35;24.02
6136;BME280;24008;42.664;23.372;2023-09-30T11:12:39;95154.22;;;28.07;24.15
6136;BME280;24008;42.664;23.372;2023-09-30T11:15:19;95127.47;;;27.93;24.39
6136;BME280;24008;42.664;23.372;2023-09-30T11:17:46;95149.06;;;27.50;24.80
6136;BME280;24008;42.664;23.372;2023-09-30T11:20:13;95090.59;;;26.35;26.11
6136;BME280;24008;42.664;23.372;2023-09-30T11:22:40;95145.97;;;26.15;26.38
6136;BME280;24008;42.664;23.372;2023-09-30T11:25:15;95124.19;;;25.91;26.98
6136;BME280;24008;42.664;23.372;2023-09-30T11:27:44;95144.91;;;26.04;26.81
6136;BME280;24008;42.664;23.372;2023-09-30T11:30:13;95142.50;;;25.79;27.23
6136;BME280;24008;42.664;23.372;2023-09-30T11:32:40;95134.69;;;25.61;27.23
6136;BME280;24008;42.664;23.372;2023-09-30T11:35:21;94947.72;;;24.32;27.90
6136;BME280;24008;42.664;23.372;2023-09-30T11:37:50;95114.28;;;25.52;28.06
6136;BME280;24008;42.664;23.372;2023-09-30T11:40:18;95124.38;;;25.48;28.00
6136;BME280;24008;42.664;23.372;2023-09-30T11:43:07;95136.34;;;25.44;28.60
6136;BME280;24008;42.664;23.372;2023-09-30T11:45:36;95082.19;;;25.15;28.79
6136;BME280;24008;42.664;23.372;2023-09-30T11:48:16;95108.34;;;25.44;28.65
6136;BME280;24008;42.664;23.372;2023-09-30T11:50:47;95126.91;;;25.55;28.57
6136;BME280;24008;42.664;23.372;2023-09-30T11:53:16;95109.25;;;25.50;28.59
6136;BME280;24008;42.664;23.372;2023-09-30T11:55:43;95121.59;;;25.61;28.67
6136;BME280;24008;42.664;23.372;2023-09-30T11:58:12;95118.84;;;25.56;28.54
6136;BME280;24008;42.664;23.372;2023-09-30T12:00:44;95114.28;;;25.52;28.82
6136;BME280;24008;42.664;23.372;2023-09-30T12:03:11;95090.44;;;25.30;28.62
6136;BME280;24008;42.664;23.372;2023-09-30T12:05:37;95110.47;;;25.36;28.87
6136;BME280;24008;42.664;23.372;2023-09-30T12:08:04;95105.59;;;25.39;28.75
6136;BME280;24008;42.664;23.372;2023-09-30T12:10:32;95033.28;;;24.85;29.15
6136;BME280;24008;42.664;23.372;2023-09-30T12:12:59;95112.06;;;25.37;28.87
6136;BME280;24008;42.664;23.372;2023-09-30T12:15:27;95104.09;;;25.32;29.08
6136;BME280;24008;42.664;23.372;2023-09-30T12:17:54;95095.84;;;25.17;29.17
6136;BME280;24008;42.664;23.372;2023-09-30T12:20:21;95075.03;;;25.10;28.99
6136;BME280;24008;42.664;23.372;2023-09-30T12:22:48;95096.59;;;25.05;29.02
6136;BME280;24008;42.664;23.372;2023-09-30T12:25:15;94990.78;;;24.41;29.69
6136;BME280;24008;42.664;23.372;2023-09-30T12:27:44;95089.66;;;24.99;28.74
6136;BME280;24008;42.664;23.372;2023-09-30T12:30:12;95073.75;;;24.83;28.77
6136;BME280;24008;42.664;23.372;2023-09-30T12:32:41;95017.16;;;24.40;29.19
6136;BME280;24008;42.664;23.372;2023-09-30T12:35:08;95079.34;;;24.68;29.03
6136;BME280;24008;42.664;23.372;2023-09-30T12:37:35;95075.44;;;24.59;29.39
6136;BME280;24008;42.664;23.372;2023-09-30T12:40:04;95030.09;;;24.35;29.31
6136;BME280;24008;42.664;23.372;2023-09-30T12:42:32;95073.53;;;24.66;29.39
6136;BME280;24008;42.664;23.372;2023-09-30T12:45:00;95044.94;;;24.53;29.41
6136;BME280;24008;42.664;23.372;2023-09-30T12:47:27;95076.56;;;24.81;29.51
6136;BME280;24008;42.664;23.372;2023-09-30T12:49:55;95041.38;;;24.65;29.14
6136;BME280;24008;42.664;23.372;2023-09-30T12:52:23;95066.31;;;24.80;28.70
6136;BME280;24008;42.664;23.372;2023-09-30T12:54:51;95067.72;;;24.82;29.54
6136;BME280;24008;42.664;23.372;2023-09-30T12:57:17;95045.50;;;24.73;29.31
6136;BME280;24008;42.664;23.372;2023-09-30T12:59:44;95059.28;;;24.80;29.50
6136;BME280;24008;42.664;23.372;2023-09-30T13:02:12;95061.78;;;24.75;29.67
6136;BME280;24008;42.664;23.372;2023-09-30T13:04:39;95066.28;;;24.68;29.22
6136;BME280;24008;42.664;23.372;2023-09-30T13:07:10;95061.13;;;24.61;29.91